Time;durP1;ratioP1;P1;durP2;ratioP2;P2;SDS_P1;SDS_P2;PMS_P1;PMS_P2;Temp;Humidity;BMP_temperature;BMP_pressure;BME280_temperature;BME280_humidity;BME280_pressure;Samples;Min_cycle;Max_cycle;Signal;HPM_P1;HPM_P2
2022/07/19 00:00:33;;;;;;;18.65;6.20;;;29.60;28.80;;;;;;6272480;22;19999;-85
2022/07/19 00:02:59;;;;;;;20.88;5.85;;;29.50;29.00;;;;;;6272727;22;20010;-91
2022/07/19 00:05:25;;;;;;;17.15;5.70;;;29.50;28.80;;;;;;6271709;22;20039;-92
2022/07/19 00:07:51;;;;;;;12.63;5.82;;;29.50;29.20;;;;;;6271591;22;20006;-85
2022/07/19 00:10:19;;;;;;;17.38;6.38;;;29.50;29.50;;;;;;6273299;22;20063;-91
2022/07/19 00:12:45;;;;;;;17.75;5.95;;;29.40;28.90;;;;;;6273538;22;20479;-92
2022/07/19 00:15:13;;;;;;;18.88;5.53;;;29.40;28.90;;;;;;6246257;22;20015;-91
2022/07/19 00:17:42;;;;;;;15.02;6.38;;;29.40;28.90;;;;;;6273605;22;20015;-85
2022/07/19 00:20:11;;;;;;;18.95;5.97;;;29.30;28.90;;;;;;6273614;22;20525;-88
2022/07/19 00:22:37;;;;;;;17.73;6.60;;;29.30;29.20;;;;;;6273628;22;20018;-92
2022/07/19 00:25:04;;;;;;;15.30;6.13;;;29.30;29.70;;;;;;6273819;22;20078;-85
2022/07/19 00:27:29;;;;;;;18.92;6.47;;;29.20;35.60;;;;;;6273821;22;20003;-92
2022/07/19 00:29:55;;;;;;;16.00;6.40;;;29.20;39.00;;;;;;6273635;22;20070;-91
2022/07/19 00:32:21;;;;;;;15.02;6.10;;;29.20;40.30;;;;;;6273322;22;20054;-88
2022/07/19 00:34:47;;;;;;;15.55;6.32;;;29.10;40.60;;;;;;6246451;22;20004;-91
2022/07/19 00:37:13;;;;;;;21.02;6.90;;;29.10;42.50;;;;;;6273493;22;20078;-87
2022/07/19 00:39:38;;;;;;;20.95;6.82;;;29.20;43.30;;;;;;6273101;22;20020;-90
2022/07/19 00:42:04;;;;;;;20.75;6.90;;;29.10;44.20;;;;;;6274685;22;20006;-85
2022/07/19 00:44:30;;;;;;;21.90;6.38;;;29.10;44.50;;;;;;6246223;22;20004;-86
2022/07/19 00:46:56;;;;;;;20.77;6.10;;;29.00;44.20;;;;;;6273628;22;20250;-90
2022/07/19 00:49:22;;;;;;;18.17;7.00;;;29.10;46.00;;;;;;6246560;22;20008;-89
2022/07/19 00:51:51;;;;;;;19.88;6.45;;;29.10;47.00;;;;;;6247052;22;20010;-93
2022/07/19 00:54:17;;;;;;;15.73;6.32;;;;;;;;;;6273021;22;20006;-87
2022/07/19 00:56:45;;;;;;;19.13;7.03;;;;;;;;;;6273108;22;20014;-91
2022/07/19 00:59:11;;;;;;;21.67;6.65;;;29.10;46.30;;;;;;6272898;22;19996;-90
2022/07/19 01:01:37;;;;;;;14.48;6.50;;;29.10;47.50;;;;;;6273279;22;20006;-86
2022/07/19 01:04:03;;;;;;;17.02;6.10;;;29.00;46.60;;;;;;6274590;22;19996;-87
2022/07/19 01:06:29;;;;;;;17.23;6.78;;;28.90;47.40;;;;;;6273473;22;20003;-88
2022/07/19 01:08:54;;;;;;;16.48;6.57;;;28.90;49.50;;;;;;6273191;22;19999;-87
2022/07/19 01:11:20;;;;;;;18.17;7.20;;;28.90;50.00;;;;;;6245907;22;20004;-91
2022/07/19 01:13:46;;;;;;;13.23;6.20;;;28.90;49.90;;;;;;6246145;22;20000;-89
2022/07/19 01:16:12;;;;;;;15.65;6.28;;;28.90;50.30;;;;;;6273148;22;20012;-89
2022/07/19 01:18:38;;;;;;;15.88;6.35;;;;;;;;;;6273737;22;20318;-86
2022/07/19 01:21:05;;;;;;;19.05;6.55;;;29.00;50.90;;;;;;6273728;22;20007;-90
2022/07/19 01:23:31;;;;;;;17.73;6.05;;;28.90;52.50;;;;;;6274256;22;20000;-89
2022/07/19 01:25:57;;;;;;;20.25;6.57;;;28.80;51.90;;;;;;6249887;22;20035;-90
2022/07/19 01:28:23;;;;;;;17.67;6.47;;;;;;;;;;6273146;22;20007;-92
2022/07/19 01:30:50;;;;;;;14.68;5.65;;;;;;;;;;6272801;22;20067;-87
2022/07/19 01:33:17;;;;;;;17.65;6.22;;;;;;;;;;6272963;22;20004;-87
2022/07/19 01:35:43;;;;;;;16.38;6.30;;;;;;;;;;6272417;22;19999;-86
2022/07/19 01:38:09;;;;;;;16.55;5.97;;;;;;;;;;6272891;22;20003;-85
2022/07/19 01:40:35;;;;;;;18.65;6.40;;;;;;;;;;6273994;22;20467;-90
2022/07/19 01:43:01;;;;;;;17.30;6.57;;;;;;;;;;6272387;22;20004;-86
2022/07/19 01:45:27;;;;;;;15.63;5.53;;;;;;;;;;6273122;22;19995;-88
2022/07/19 01:47:53;;;;;;;17.48;6.07;;;;;;;;;;6246796;22;20027;-90
2022/07/19 01:50:19;;;;;;;16.63;6.43;;;;;;;;;;6272749;22;19996;-92
2022/07/19 01:52:46;;;;;;;20.08;6.03;;;;;;;;;;6272876;22;20058;-92
2022/07/19 01:55:13;;;;;;;17.77;6.18;;;;;;;;;;6245403;22;20090;-92
2022/07/19 01:57:39;;;;;;;20.58;5.72;;;;;;;;;;6273382;22;20011;-86
2022/07/19 02:00:06;;;;;;;18.15;6.18;;;;;;;;;;6272931;22;20007;-89
2022/07/19 02:02:32;;;;;;;16.67;6.17;;;;;;;;;;6272619;22;20452;-88
2022/07/19 02:04:58;;;;;;;18.58;5.50;;;;;;;;;;6272358;22;20442;-87
2022/07/19 02:07:24;;;;;;;15.02;5.85;;;;;;;;;;6272044;22;20003;-88
2022/07/19 02:09:50;;;;;;;17.23;6.00;;;;;;;;;;6272155;22;20030;-85
2022/07/19 02:12:16;;;;;;;12.82;5.60;;;;;;;;;;6272779;22;20004;-89
2022/07/19 02:14:42;;;;;;;16.10;5.45;;;;;;;;;;6272760;22;20057;-84
2022/07/19 02:17:08;;;;;;;15.05;5.90;;;;;;;;;;6273266;22;20015;-90
2022/07/19 02:19:34;;;;;;;17.30;5.40;;;;;;;;;;6272147;22;19999;-92
2022/07/19 02:22:00;;;;;;;19.52;5.93;;;;;;;;;;6272237;22;20331;-87
2022/07/19 02:24:26;;;;;;;16.27;5.38;;;;;;;;;;6271872;22;20337;-86
2022/07/19 02:26:53;;;;;;;18.92;5.82;;;;;;;;;;6272200;22;20385;-90
2022/07/19 02:29:19;;;;;;;17.83;5.75;;;;;;;;;;6272339;22;20007;-89
2022/07/19 02:31:45;;;;;;;18.17;6.38;;;;;;;;;;6271979;22;20004;-90
2022/07/19 02:34:11;;;;;;;12.88;5.28;;;;;;;;;;6273115;22;20007;-91
2022/07/19 02:36:37;;;;;;;15.23;5.60;;;;;;;;;;6246438;22;20360;-88
2022/07/19 02:39:03;;;;;;;17.77;6.00;;;;;;;;;;6244727;22;20447;-86
2022/07/19 02:41:31;;;;;;;12.15;5.38;;;;;;;;;;6272485;22;20000;-85
2022/07/19 02:43:57;;;;;;;15.63;5.97;;;;;;;;;;6243982;22;20031;-85
2022/07/19 02:46:23;;;;;;;12.80;5.28;;;;;;;;;;6271016;22;20004;-91
2022/07/19 02:48:49;;;;;;;18.90;6.07;;;;;;;;;;6244807;22;20049;-87
2022/07/19 02:51:15;;;;;;;10.60;5.57;;;;;;;;;;6271599;22;20000;-90
2022/07/19 02:53:41;;;;;;;15.93;5.15;;;;;;;;;;6245751;22;20082;-87
2022/07/19 02:56:07;;;;;;;20.67;6.20;;;;;;;;;;6245446;22;20016;-86
2022/07/19 02:58:33;;;;;;;13.73;4.78;;;;;;;;;;6245065;22;20090;-89
2022/07/19 03:00:59;;;;;;;12.57;5.78;;;;;;;;;;6271922;22;20082;-86
2022/07/19 03:03:43;;;;;;;15.63;5.22;;;28.90;52.90;;;;;;6271454;22;19995;-87
2022/07/19 03:06:10;;;;;;;15.50;5.43;;;28.30;66.90;;;;;;6272468;22;20035;-85
2022/07/19 03:08:36;;;;;;;15.95;5.47;;;28.40;32.80;;;;;;6271820;22;20042;-90
2022/07/19 03:11:02;;;;;;;15.00;5.53;;;28.40;32.20;;;;;;6271844;22;20267;-84
2022/07/19 03:13:28;;;;;;;23.30;5.60;;;28.40;33.80;;;;;;6271609;22;19999;-88
2022/07/19 03:15:54;;;;;;;10.50;5.07;;;28.40;39.10;;;;;;6271618;22;20004;-88
2022/07/19 03:18:19;;;;;;;16.00;5.82;;;28.30;32.20;;;;;;6271315;22;20000;-84
2022/07/19 03:20:45;;;;;;;17.67;5.20;;;28.30;32.10;;;;;;6271050;22;20479;-88
2022/07/19 03:23:11;;;;;;;13.73;5.80;;;28.30;32.20;;;;;;6272455;22;20000;-87
2022/07/19 03:25:36;;;;;;;16.38;5.25;;;28.20;32.60;;;;;;6271468;22;20417;-88
2022/07/19 03:28:02;;;;;;;16.90;5.45;;;28.30;32.40;;;;;;6271407;22;20004;-89
2022/07/19 03:30:28;;;;;;;14.95;5.35;;;28.20;32.30;;;;;;6271329;22;20007;-88
2022/07/19 03:32:54;;;;;;;14.43;5.15;;;28.20;33.50;;;;;;6272594;22;20000;-92
2022/07/19 03:35:19;;;;;;;11.52;5.28;;;28.20;38.80;;;;;;6271025;22;20380;-87
2022/07/19 03:37:46;;;;;;;16.77;5.13;;;28.10;32.90;;;;;;6244208;22;20015;-90
2022/07/19 03:40:12;;;;;;;14.10;5.32;;;28.10;32.70;;;;;;6272700;22;20030;-87
2022/07/19 03:42:38;;;;;;;18.73;5.32;;;28.10;33.30;;;;;;6244595;22;20317;-88
2022/07/19 03:45:04;;;;;;;18.40;5.18;;;28.00;33.80;;;;;;6273121;22;20070;-87
2022/07/19 03:47:30;;;;;;;14.70;5.40;;;28.00;33.30;;;;;;6246421;22;20007;-86
2022/07/19 03:49:57;;;;;;;17.92;5.55;;;27.90;33.80;;;;;;6246252;22;20428;-86
2022/07/19 03:52:23;;;;;;;12.83;5.47;;;28.10;38.00;;;;;;6246599;22;20448;-85
2022/07/19 03:54:49;;;;;;;15.57;5.25;;;27.40;36.00;;;;;;6273573;22;20309;-87
2022/07/19 03:57:15;;;;;;;13.25;5.03;;;27.90;33.80;;;;;;6275194;22;20019;-86
2022/07/19 03:59:41;;;;;;;18.40;5.18;;;27.80;33.60;;;;;;6293604;22;20042;-85
2022/07/19 04:02:07;;;;;;;16.02;5.55;;;27.70;34.20;;;;;;6288830;22;19999;-86
2022/07/19 04:04:33;;;;;;;13.15;5.75;;;27.70;34.40;;;;;;6273229;22;20004;-92
2022/07/19 04:06:58;;;;;;;17.98;5.70;;;27.60;35.50;;;;;;6273480;22;20379;-90
2022/07/19 04:09:24;;;;;;;14.75;5.40;;;27.60;35.00;;;;;;6275633;22;20007;-90
2022/07/19 04:11:49;;;;;;;13.35;5.18;;;27.60;34.90;;;;;;6246768;22;20007;-89
2022/07/19 04:14:15;;;;;;;17.38;6.00;;;27.50;35.00;;;;;;6274561;22;19996;-88
2022/07/19 04:16:41;;;;;;;13.75;5.18;;;27.50;35.10;;;;;;6272811;22;20053;-90
2022/07/19 04:19:06;;;;;;;14.50;4.75;;;27.40;35.30;;;;;;6273110;22;20441;-88
2022/07/19 04:21:32;;;;;;;13.65;5.25;;;27.40;35.40;;;;;;6273252;22;20020;-86
2022/07/19 04:23:58;;;;;;;17.65;5.47;;;27.40;35.90;;;;;;6245991;22;20010;-88
2022/07/19 04:26:24;;;;;;;13.57;4.85;;;27.30;36.60;;;;;;6273629;22;20083;-87
2022/07/19 04:28:50;;;;;;;11.85;4.95;;;27.20;37.10;;;;;;6272914;22;19996;-88
2022/07/19 04:31:16;;;;;;;17.38;4.80;;;27.20;36.10;;;;;;6274250;22;20003;-87
2022/07/19 04:33:43;;;;;;;19.67;4.75;;;27.20;36.40;;;;;;6273353;22;20440;-86
2022/07/19 04:36:08;;;;;;;16.05;4.93;;;27.20;37.30;;;;;;6273109;22;20016;-88
2022/07/19 04:38:34;;;;;;;19.05;4.90;;;27.20;36.60;;;;;;6272986;22;20000;-85
2022/07/19 04:41:00;;;;;;;11.43;5.13;;;27.20;37.00;;;;;;6246259;22;20055;-90
2022/07/19 04:43:26;;;;;;;14.80;5.18;;;27.10;38.00;;;;;;6272931;22;20003;-89
2022/07/19 04:45:52;;;;;;;19.52;5.05;;;27.10;37.80;;;;;;6245680;22;20007;-85
2022/07/19 04:48:18;;;;;;;14.15;5.53;;;27.10;37.30;;;;;;6273764;22;20057;-86
2022/07/19 04:50:43;;;;;;;19.60;5.47;;;27.10;37.20;;;;;;6273998;22;20002;-86
2022/07/19 04:53:09;;;;;;;13.95;5.25;;;27.00;38.00;;;;;;6273159;22;20083;-88
2022/07/19 04:55:37;;;;;;;14.18;5.30;;;27.00;38.40;;;;;;6272172;22;20003;-87
2022/07/19 04:58:03;;;;;;;20.58;5.55;;;27.00;38.20;;;;;;6245363;22;20463;-89
2022/07/19 05:00:29;;;;;;;19.98;5.50;;;27.00;39.80;;;;;;6245524;22;20004;-87
2022/07/19 05:02:55;;;;;;;10.82;5.00;;;27.00;38.40;;;;;;6272559;22;20459;-86
2022/07/19 05:05:21;;;;;;;18.77;5.30;;;26.90;39.10;;;;;;6272963;22;20000;-87
2022/07/19 05:07:47;;;;;;;21.13;5.53;;;27.00;39.20;;;;;;6274273;22;20008;-89
2022/07/19 05:10:13;;;;;;;16.60;5.45;;;27.00;39.60;;;;;;6272639;22;20072;-90
2022/07/19 05:12:40;;;;;;;20.20;5.05;;;27.00;40.40;;;;;;6271266;22;20288;-88
2022/07/19 05:15:07;;;;;;;18.33;5.20;;;27.00;39.10;;;;;;6271166;22;20057;-85
2022/07/19 05:17:33;;;;;;;11.70;4.68;;;27.00;39.00;;;;;;6271729;22;20031;-84
2022/07/19 05:19:58;;;;;;;15.55;5.03;;;27.00;39.80;;;;;;6271372;22;20486;-85
2022/07/19 05:22:25;;;;;;;13.25;4.82;;;27.00;40.00;;;;;;6272129;22;20348;-87
2022/07/19 05:24:52;;;;;;;17.25;5.32;;;27.00;39.30;;;;;;6272281;22;20041;-87
2022/07/19 05:27:18;;;;;;;17.27;4.82;;;27.00;39.70;;;;;;6272478;22;20000;-90
2022/07/19 05:29:44;;;;;;;17.63;5.00;;;27.10;40.30;;;;;;6244713;22;20379;-88
2022/07/19 05:32:09;;;;;;;16.35;4.97;;;27.00;39.80;;;;;;6244272;22;20004;-90
2022/07/19 05:34:35;;;;;;;14.85;5.00;;;27.10;41.30;;;;;;6271567;22;20008;-86
2022/07/19 05:37:00;;;;;;;16.52;4.70;;;27.00;40.90;;;;;;6271201;22;20404;-86
2022/07/19 05:39:26;;;;;;;19.50;5.18;;;27.10;40.60;;;;;;6244162;22;20082;-83
2022/07/19 05:41:52;;;;;;;11.70;4.80;;;27.10;41.10;;;;;;6271220;22;20010;-85
2022/07/19 05:44:18;;;;;;;10.95;5.07;;;27.10;40.70;;;;;;6245095;22;20054;-85
2022/07/19 05:46:43;;;;;;;16.95;5.38;;;27.20;40.50;;;;;;6271053;22;20436;-86
2022/07/19 05:49:10;;;;;;;16.20;5.18;;;27.20;41.30;;;;;;6271280;22;20231;-87
2022/07/19 05:51:36;;;;;;;10.57;4.90;;;27.20;40.90;;;;;;6244330;22;20383;-89
2022/07/19 05:54:04;;;;;;;16.50;5.65;;;27.20;40.90;;;;;;6271226;22;20475;-86
2022/07/19 05:56:30;;;;;;;21.60;5.07;;;27.20;42.80;;;;;;6271075;22;20015;-85
2022/07/19 05:58:56;;;;;;;22.70;5.80;;;27.20;43.90;;;;;;6271255;22;20006;-86
2022/07/19 06:01:22;;;;;;;12.55;5.00;;;27.20;41.20;;;;;;6271202;22;20074;-88
2022/07/19 06:03:58;;;;;;;25.05;5.20;;;27.20;41.80;;;;;;6272701;22;20000;-85
2022/07/19 06:06:26;;;;;;;20.25;5.10;;;27.30;41.70;;;;;;6270993;22;20004;-84
2022/07/19 06:08:52;;;;;;;16.20;5.22;;;27.30;42.30;;;;;;6244721;22;20007;-85
2022/07/19 06:11:19;;;;;;;18.40;5.38;;;27.40;43.20;;;;;;6272916;22;20138;-87
2022/07/19 06:13:46;;;;;;;14.33;5.00;;;27.50;42.10;;;;;;6272773;22;20075;-85
2022/07/19 06:16:12;;;;;;;13.32;5.25;;;27.40;41.80;;;;;;6271889;22;20258;-85
2022/07/19 06:18:38;;;;;;;24.35;5.65;;;27.50;42.30;;;;;;6272116;22;20000;-89
2022/07/19 06:21:09;;;;;;;26.85;5.72;;;27.60;42.20;;;;;;6271183;22;20012;-86
2022/07/19 06:23:35;;;;;;;17.90;5.28;;;27.60;42.90;;;;;;6271117;22;20446;-86
2022/07/19 06:26:01;;;;;;;20.35;5.50;;;27.60;42.50;;;;;;6271717;22;20010;-86
2022/07/19 06:28:27;;;;;;;14.27;5.30;;;27.60;42.00;;;;;;6271876;22;20031;-86
2022/07/19 06:30:53;;;;;;;17.95;5.45;;;27.70;42.90;;;;;;6272546;22;19999;-85
2022/07/19 06:33:19;;;;;;;14.85;5.45;;;27.70;42.30;;;;;;6274389;22;20318;-85
2022/07/19 06:35:45;;;;;;;20.38;5.72;;;27.80;43.00;;;;;;6272996;22;20027;-85
2022/07/19 06:38:11;;;;;;;19.98;5.80;;;27.80;43.20;;;;;;6272604;22;20843;-86
2022/07/19 06:40:36;;;;;;;15.80;5.60;;;27.90;42.90;;;;;;6271836;22;20000;-87
2022/07/19 06:43:02;;;;;;;23.73;5.13;;;27.90;42.60;;;;;;6272013;22;20011;-85
2022/07/19 06:45:27;;;;;;;14.25;5.13;;;28.00;42.60;;;;;;6271731;22;19999;-90
2022/07/19 06:47:53;;;;;;;16.35;5.38;;;28.00;44.30;;;;;;6271486;22;20000;-89
2022/07/19 06:50:19;;;;;;;15.60;5.80;;;28.00;43.00;;;;;;6245990;22;20004;-84
2022/07/19 06:52:45;;;;;;;16.83;5.55;;;28.10;43.00;;;;;;6281524;22;20004;-85
2022/07/19 06:55:11;;;;;;;17.60;6.38;;;28.10;43.20;;;;;;6285945;22;20004;-85
2022/07/19 06:57:37;;;;;;;22.80;5.90;;;28.10;43.80;;;;;;6276078;22;20018;-87
2022/07/19 07:00:06;;;;;;;13.27;6.27;;;28.20;44.30;;;;;;6271926;22;20026;-84
2022/07/19 07:02:31;;;;;;;17.30;6.47;;;28.20;43.60;;;;;;6271394;22;20000;-85
2022/07/19 07:04:57;;;;;;;24.65;7.00;;;28.30;44.20;;;;;;6271809;22;20003;-85
2022/07/19 07:07:23;;;;;;;26.17;7.50;;;28.30;43.30;;;;;;6271897;22;20003;-85
2022/07/19 07:09:48;;;;;;;19.38;6.95;;;28.30;43.50;;;;;;6274116;22;20057;-84
2022/07/19 07:12:14;;;;;;;19.40;7.32;;;28.40;43.90;;;;;;6274003;22;20050;-84
2022/07/19 07:14:39;;;;;;;25.30;8.55;;;28.50;44.40;;;;;;6246940;22;20057;-86
2022/07/19 07:17:05;;;;;;;17.58;8.88;;;28.50;45.20;;;;;;6272456;22;20007;-84
2022/07/19 07:19:31;;;;;;;21.63;9.80;;;28.50;44.10;;;;;;6273652;22;20055;-91
2022/07/19 07:21:59;;;;;;;22.55;9.48;;;28.50;44.90;;;;;;6271469;22;20012;-86
2022/07/19 07:24:25;;;;;;;21.90;9.60;;;28.60;44.50;;;;;;6278845;22;20360;-87
2022/07/19 07:26:52;;;;;;;33.95;10.77;;;28.60;44.30;;;;;;6284210;22;20006;-86
2022/07/19 07:29:19;;;;;;;28.42;10.68;;;28.70;45.80;;;;;;6281051;22;19996;-87
2022/07/19 07:31:45;;;;;;;21.42;11.45;;;28.70;44.80;;;;;;6278867;22;20459;-89
2022/07/19 07:34:10;;;;;;;25.10;12.13;;;28.80;45.50;;;;;;6275148;22;20003;-89
2022/07/19 07:36:36;;;;;;;24.02;12.45;;;28.80;44.70;;;;;;6250751;22;20000;-86
2022/07/19 07:39:02;;;;;;;25.05;12.35;;;28.90;46.30;;;;;;6273466;22;20010;-86
2022/07/19 07:41:28;;;;;;;24.48;13.25;;;29.00;45.10;;;;;;6246143;22;20082;-89
2022/07/19 07:43:55;;;;;;;22.40;12.82;;;29.00;47.30;;;;;;6250652;22;20011;-89
2022/07/19 07:46:21;;;;;;;24.80;13.30;;;29.00;46.40;;;;;;6251586;22;20003;-93
2022/07/19 07:48:46;;;;;;;20.42;13.25;;;29.00;47.30;;;;;;6273171;22;20440;-89
2022/07/19 07:51:12;;;;;;;23.83;12.75;;;29.10;46.60;;;;;;6272175;22;20004;-88
2022/07/19 07:53:37;;;;;;;20.15;12.85;;;29.20;46.20;;;;;;6271499;22;20000;-88
2022/07/19 07:56:04;;;;;;;24.63;14.13;;;29.20;45.80;;;;;;6244897;22;20012;-88
2022/07/19 07:58:30;;;;;;;25.52;14.65;;;29.20;45.50;;;;;;6271642;22;20012;-87
2022/07/19 08:00:56;;;;;;;24.60;14.98;;;29.30;46.00;;;;;;6273627;22;20031;-88
2022/07/19 08:03:21;;;;;;;29.27;17.85;;;29.40;47.40;;;;;;6273830;22;20306;-89
2022/07/19 08:05:48;;;;;;;28.77;20.63;;;;;;;;;;6272968;22;20002;-93
2022/07/19 08:08:17;;;;;;;30.25;21.67;;;;;;;;;;6272167;22;20020;-92
2022/07/19 08:10:44;;;;;;;32.67;22.98;;;;;;;;;;6271419;22;20031;-87
2022/07/19 08:13:10;;;;;;;40.42;22.38;;;;;;;;;;6270766;22;20058;-91
2022/07/19 08:15:36;;;;;;;31.48;22.85;;;;;;;;;;6270968;22;20069;-90
2022/07/19 08:18:03;;;;;;;32.40;24.57;;;;;;;;;;6271066;22;20511;-86
2022/07/19 08:20:29;;;;;;;31.25;23.15;;;;;;;;;;6271150;22;20687;-88
2022/07/19 08:22:55;;;;;;;40.10;24.90;;;;;;;;;;6272730;22;20004;-89
2022/07/19 08:25:20;;;;;;;34.13;22.70;;;29.50;46.60;;;;;;6272378;22;20007;-92
2022/07/19 08:27:46;;;;;;;36.83;21.83;;;29.90;48.40;;;;;;6271549;22;20007;-89
2022/07/19 08:30:13;;;;;;;33.75;23.35;;;30.00;49.10;;;;;;6245594;22;20000;-91
2022/07/19 08:32:40;;;;;;;28.17;24.00;;;30.10;47.80;;;;;;6273405;22;19999;-89
2022/07/19 08:35:07;;;;;;;36.35;24.40;;;30.20;47.90;;;;;;6273091;22;19996;-87
2022/07/19 08:37:32;;;;;;;32.50;25.55;;;30.20;47.40;;;;;;6272970;22;20007;-87
2022/07/19 08:39:58;;;;;;;41.67;25.90;;;30.10;47.30;;;;;;6273461;22;20443;-88
2022/07/19 08:42:26;;;;;;;33.85;24.67;;;30.10;47.90;;;;;;6274458;22;20038;-88
2022/07/19 08:44:53;;;;;;;30.48;24.10;;;30.20;50.00;;;;;;6274362;22;20000;-91
2022/07/19 08:47:20;;;;;;;33.95;25.63;;;30.20;49.20;;;;;;6273180;22;20045;-90
2022/07/19 08:49:46;;;;;;;39.85;27.70;;;30.30;48.40;;;;;;6273070;22;20049;-91
2022/07/19 08:52:12;;;;;;;39.05;27.20;;;30.30;47.60;;;;;;6273172;22;20073;-92
2022/07/19 08:54:38;;;;;;;34.95;27.08;;;30.40;48.90;;;;;;6273137;22;20065;-90
2022/07/19 08:59:48;;;;;;;37.03;26.20;;;30.30;48.50;;;;;;6273182;22;20459;-88
2022/07/19 09:02:14;;;;;;;37.65;26.80;;;30.40;50.60;;;;;;6272908;22;20079;-87
2022/07/19 09:04:40;;;;;;;36.78;26.92;;;30.40;50.30;;;;;;6272843;22;20002;-87
2022/07/19 09:07:05;;;;;;;44.35;27.50;;;30.50;52.10;;;;;;6273083;22;20007;-92
2022/07/19 09:09:36;;;;;;;37.45;28.02;;;30.40;52.80;;;;;;6273161;22;20045;-91
2022/07/19 09:12:04;;;;;;;43.47;26.25;;;30.40;51.80;;;;;;6272980;22;20004;-86
2022/07/19 09:14:35;;;;;;;39.28;27.35;;;30.50;54.00;;;;;;6272841;22;20002;-88
2022/07/19 09:17:06;;;;;;;36.55;25.63;;;30.60;54.10;;;;;;6272729;22;20034;-93
2022/07/19 09:19:43;;;;;;;41.00;23.70;;;30.70;54.30;;;;;;6273720;22;19995;-87
2022/07/19 09:22:10;;;;;;;;;;;30.80;57.20;;;;;;6273062;22;20087;-91
2022/07/19 09:25:02;;;;;;;34.55;22.98;;;31.00;57.20;;;;;;6273120;22;19899;-91
2022/07/19 09:27:29;;;;;;;30.75;21.48;;;31.10;59.50;;;;;;6267797;22;20008;-87
2022/07/19 09:29:56;;;;;;;28.63;20.05;;;31.10;58.40;;;;;;6273978;22;19996;-92
2022/07/19 09:32:24;;;;;;;32.72;18.95;;;30.60;58.90;;;;;;6273050;22;19999;-90
2022/07/19 09:34:56;;;;;;;35.33;19.77;;;;;;;;;;6273162;22;20073;-90
2022/07/19 09:37:22;;;;;;;39.67;19.05;;;;;;;;;;6245551;22;20016;-92
2022/07/19 09:39:50;;;;;;;25.92;18.05;;;;;;;;;;6272668;22;20000;-91
2022/07/19 09:42:18;;;;;;;24.10;17.05;;;;;;;;;;6272761;22;20018;-89
2022/07/19 09:44:45;;;;;;;27.63;17.80;;;;;;;;;;6272844;22;19996;-85
2022/07/19 09:47:11;;;;;;;23.98;17.77;;;;;;;;;;6245578;22;19999;-85
2022/07/19 09:49:37;;;;;;;23.42;17.20;;;;;;;;;;6272815;22;20003;-90
2022/07/19 09:52:03;;;;;;;29.55;17.52;;;;;;;;;;6272757;22;20016;-85
2022/07/19 09:54:31;;;;;;;24.98;16.40;;;;;;;;;;6273821;22;20329;-88
2022/07/19 09:56:58;;;;;;;26.00;16.67;;;;;;;;;;6273815;22;20007;-86
2022/07/19 09:59:24;;;;;;;24.38;15.73;;;;;;;;;;6245647;22;20057;-85
2022/07/19 10:01:52;;;;;;;24.37;15.60;;;;;;;;;;6245778;22;20263;-85
2022/07/19 10:04:20;;;;;;;19.67;15.60;;;;;;;;;;6273088;22;20429;-86
2022/07/19 10:06:47;;;;;;;20.05;14.77;;;;;;;;;;6245413;22;20003;-91
2022/07/19 10:09:14;;;;;;;22.43;15.67;;;;;;;;;;6272559;22;20004;-92
2022/07/19 10:11:40;;;;;;;19.52;14.52;;;;;;;;;;6245810;22;20459;-90
2022/07/19 10:14:07;;;;;;;25.00;15.07;;;;;;;;;;6272563;22;20011;-86
2022/07/19 10:16:39;;;;;;;32.10;16.25;;;;;;;;;;6272522;22;20115;-91
2022/07/19 10:19:05;;;;;;;21.88;14.95;;;;;;;;;;6272287;22;19996;-94
2022/07/19 10:21:31;;;;;;;24.23;15.23;;;;;;;;;;6273415;22;20008;-88
2022/07/19 10:23:57;;;;;;;19.23;13.60;;;;;;;;;;6273834;22;20018;-86
2022/07/19 10:26:44;;;;;;;21.42;14.40;;;;;;;;;;6272384;22;20026;-90
2022/07/19 10:29:12;;;;;;;23.75;14.23;;;;;;;;;;6272477;22;20011;-91
2022/07/19 10:31:38;;;;;;;25.15;14.13;;;;;;;;;;6272308;22;20000;-92
2022/07/19 10:34:05;;;;;;;16.40;12.32;;;;;;;;;;6272261;22;20003;-87
2022/07/19 10:36:33;;;;;;;28.42;13.40;;;;;;;;;;6273521;22;20011;-84
2022/07/19 10:38:58;;;;;;;;;;;;;;;;;;6273692;22;19995;-85
2022/07/19 10:41:26;;;;;;;25.95;12.63;;;;;;;;;;6272174;22;19910;-88
2022/07/19 10:44:12;;;;;;;19.83;12.48;;;;;;;;;;6272073;22;20525;-92
2022/07/19 10:46:51;;;;;;;28.00;12.77;;;;;;;;;;6247527;22;20000;-92
2022/07/19 10:49:37;;;;;;;25.83;11.88;;;;;;;;;;6254351;22;20230;-92
2022/07/19 10:52:35;;;;;;;28.02;12.15;;;;;;;;;;6246884;22;20130;-93
2022/07/19 10:55:17;;;;;;;23.73;12.52;;;;;;;;;;6206737;22;20008;-91
2022/07/19 10:57:43;;;;;;;26.80;13.25;;;;;;;;;;6245778;22;20011;-88
2022/07/19 11:00:30;;;;;;;29.13;12.43;;;;;;;;;;6273274;22;20003;-89
2022/07/19 11:03:21;;;;;;;27.10;13.20;;;27.00;96.40;;;;;;6246467;22;19995;-87
2022/07/19 11:06:07;;;;;;;22.85;13.68;;;26.20;99.90;;;;;;6263291;22;19992;-87
2022/07/19 11:08:42;;;;;;;;;;;26.00;99.90;;;;;;6288873;22;20006;-87
2022/07/19 11:11:11;;;;;;;22.75;12.65;;;25.60;99.90;;;;;;6255824;22;19899;-85
2022/07/19 11:13:39;;;;;;;22.08;13.23;;;;;;;;;;6274406;22;20129;-85
2022/07/19 11:16:05;;;;;;;24.08;13.43;;;25.50;99.90;;;;;;6251826;22;20015;-91
2022/07/19 11:18:31;;;;;;;20.98;11.95;;;25.60;99.90;;;;;;6273047;22;20000;-88
2022/07/19 11:21:00;;;;;;;17.30;11.55;;;25.70;99.90;;;;;;6270518;22;20008;-85
2022/07/19 11:23:39;;;;;;;24.52;12.43;;;25.60;99.90;;;;;;6274581;22;20003;-89
2022/07/19 11:26:20;;;;;;;23.17;12.50;;;25.70;99.90;;;;;;6271256;22;20067;-85
2022/07/19 11:28:47;;;;;;;25.38;13.30;;;25.70;99.90;;;;;;6271751;22;20000;-93
2022/07/19 11:31:21;;;;;;;18.38;12.55;;;25.70;99.90;;;;;;6271412;22;20114;-89
2022/07/19 11:33:50;;;;;;;18.77;12.20;;;25.70;99.90;;;;;;6271425;22;19999;-84
2022/07/19 11:36:16;;;;;;;24.98;12.52;;;25.50;99.90;;;;;;6271175;22;20440;-84
2022/07/19 11:38:47;;;;;;;17.35;11.50;;;25.30;99.90;;;;;;6271045;22;20007;-84
2022/07/19 11:41:18;;;;;;;17.42;10.98;;;25.10;99.90;;;;;;6271589;22;20506;-83
2022/07/19 11:43:54;;;;;;;17.40;10.93;;;25.00;99.90;;;;;;6270996;22;20034;-84
2022/07/19 11:46:25;;;;;;;19.52;11.65;;;25.30;99.90;;;;;;6271320;22;20030;-83
2022/07/19 11:48:58;;;;;;;19.20;11.82;;;25.30;99.90;;;;;;6271569;22;19999;-86
2022/07/19 11:51:25;;;;;;;18.13;11.95;;;25.20;99.90;;;;;;6270512;22;20007;-86
2022/07/19 11:53:53;;;;;;;22.67;12.32;;;25.20;99.90;;;;;;6271340;22;20456;-90
2022/07/19 11:56:28;;;;;;;24.45;13.85;;;25.30;99.90;;;;;;6272613;22;20008;-87
2022/07/19 11:58:56;;;;;;;24.70;12.70;;;25.40;99.90;;;;;;6243290;22;20437;-90
2022/07/19 12:01:25;;;;;;;28.55;13.73;;;25.40;99.90;;;;;;6270173;22;20008;-89
2022/07/19 12:03:56;;;;;;;26.83;13.32;;;25.60;99.90;;;;;;6242588;22;20003;-84
2022/07/19 12:06:41;;;;;;;22.83;12.77;;;25.60;99.90;;;;;;6244616;22;20003;-83
2022/07/19 12:09:18;;;;;;;22.45;13.25;;;25.50;99.90;;;;;;6245540;22;20007;-86
2022/07/19 12:11:46;;;;;;;26.10;13.05;;;25.50;99.90;;;;;;6245816;22;20012;-84
2022/07/19 12:14:19;;;;;;;21.10;12.77;;;25.50;99.90;;;;;;6272583;22;20000;-86
2022/07/19 12:16:46;;;;;;;25.45;13.57;;;25.50;99.90;;;;;;6247119;22;20019;-90
2022/07/19 12:19:14;;;;;;;28.90;14.57;;;25.50;99.90;;;;;;6274192;22;20006;-90
2022/07/19 12:21:42;;;;;;;22.25;12.85;;;25.50;99.90;;;;;;6275353;22;20011;-84
2022/07/19 12:24:29;;;;;;;;;;;25.50;99.90;;;;;;6279067;22;20394;-85
2022/07/19 12:27:09;;;;;;;29.17;14.23;;;25.60;99.90;;;;;;6244765;22;20216;-88
2022/07/19 12:29:45;;;;;;;27.88;12.77;;;25.40;99.90;;;;;;6255786;22;20011;-83
2022/07/19 12:32:13;;;;;;;30.08;13.02;;;25.60;99.90;;;;;;6272875;22;20003;-86
2022/07/19 12:34:50;;;;;;;;;;;25.80;99.90;;;;;;6281410;22;20004;-86
2022/07/19 12:37:40;;;;;;;29.00;13.80;;;26.00;99.90;;;;;;6291262;22;19907;-85
2022/07/19 12:40:18;;;;;;;25.00;13.05;;;26.10;99.90;;;;;;6200308;23;20068;-85
2022/07/19 12:42:59;;;;;;;29.85;14.02;;;26.10;99.90;;;;;;6212291;23;20067;-89
2022/07/19 12:45:27;;;;;;;29.42;12.70;;;26.20;99.90;;;;;;6182617;23;20551;-91
2022/07/19 12:47:56;;;;;;;23.25;13.35;;;26.40;99.90;;;;;;6182330;23;20016;-86
2022/07/19 12:50:22;;;;;;;20.92;12.85;;;26.60;99.90;;;;;;6208902;23;20028;-85
2022/07/19 12:52:48;;;;;;;27.02;13.63;;;26.70;99.90;;;;;;6183580;23;20524;-87
2022/07/19 12:55:15;;;;;;;27.50;11.82;;;26.80;99.90;;;;;;6209454;23;20011;-91
2022/07/19 12:57:41;;;;;;;24.27;12.82;;;26.90;99.90;;;;;;6183883;23;20066;-90
2022/07/19 13:00:07;;;;;;;25.48;12.57;;;26.90;99.90;;;;;;6210156;23;20004;-87
2022/07/19 13:02:34;;;;;;;22.70;12.20;;;;;;;;;;6185258;23;20012;-88
2022/07/19 13:04:59;;;;;;;24.63;12.63;;;27.30;99.90;;;;;;6183610;23;20008;-86
2022/07/19 13:07:25;;;;;;;27.35;12.82;;;27.40;99.90;;;;;;6182382;23;20005;-84